Pettus, TX (78146)

4:35 AM CDT on July 23, 2014 (GMT -0500)
Beeville (KBEA) Elev 269 ft | 28.37 °N, 97.80 °W | Change Station

Current weather conditions updated 15 minutes ago

Mostly Cloudy
Mostly Cloudy
76 °F
Feels Like 76 °F
N
4
Wind Variable Wind from SE

Today is forecast to be Cooler than yesterday.

Today
High -- | Low -- °F
--% Chance of Precip.
Yesterday
High -- | Low -- °F
Precip. -- in
6:47 AM 8:27 PM
Waning Crescent, 11% visible
Pressure 30.02 in
Visibility 0.8 miles
Clouds Mostly Cloudy 200 ft
Dew Point 76 °F
Humidity 100%
Rainfall 0.00 in
Snow Depth Not available.
UV 0 out of 12
Pollen 3.80 out of 12
Air Quality Not available.
Flu Activity Not available.
METAR KBEA 230920Z AUTO 14003KT 3/4SM BR BKN002 25/25 A3002 RMK AO2 T02460246

More Conditions Fewer Conditions

Pressure 30.02 in
Visibility 0.8 miles
Clouds Mostly Cloudy 200 ft
Dew Point 76 °F
Humidity 100%
Rainfall 0.00 in
Snow Depth Not available.
UV 0 out of 12
Pollen 3.80 out of 12
Air Quality Not available.
Flu Activity Not available.
METAR KBEA 230920Z AUTO 14003KT 3/4SM BR BKN002 25/25 A3002 RMK AO2 T02460246

More Conditions Fewer Conditions

10-Day Weather Forecast

Almanac

Astronomy

Jul. 23, 2014 Rise Set
Actual Time 6:47 AM CDT 8:27 PM CDT
Civil Twilight 6:21 AM CDT 8:53 PM CDT
Nautical Twilight 5:50 AM CDT 9:24 PM CDT
Astronomical Twilight 5:17 AM CDT 9:57 PM CDT
Moon 4:06 AM CDT 5:58 PM CDT
Length of Visible Light 14h 31m
Length of Day
13h 39m
Tomorrow will be 1m 4s shorter.
Waning Crescent, 11% of the Moon is Illuminated
Today
Waning Crescent
Jul 26
New
Aug 3
First Quarter
Aug 10
Full
Aug 17
Last Quarter

Today's Extremes

State Highs State Lows

Community

WunderPhotos

Upload Photos

1,736,535 photos uploaded!

Nearby

Snow Depth

Station Depth Elevation
No new snow has been reported.

Earthquake Activity

City Distance Mag. Time & Date
No recent earthquake activity has been reported nearby.
Minimum magnitude displayed is 2.5.

Coastal Water Temperatures

Place Temperature
No Stations Reporting

Nearby Weather Stations

Station Location Temp. Heat Index Dew Point Humidity Wind Precip. Elev Updated Type
Karnes County, Karnes City, TX 77.4 °F 79 °F 76 °F 94% WSW  at  0.9 mph 0.00 in / hr 381 ft 4:35 AM CDT Rapid Fire

Show More Stations Show Fewer Stations